Etusivu
METAR-TAF:

METAR-TAF

Lentoasemat :

Show Low, Arizona, Yhdysvallat

Leveyspiiri: 34-16N, Pituuspiiri: 110-00W, korkeus merenpinnasta: 1954 m

Tämänhetkinen sää

Tämä raportti tehtiin 32 minuuttia sitten, kello 10.55 UTC
tyyntä
Lämpötila 1°C
Kosteus 40%
Ilmanpaine 1024 hPa
Näkyvyys: 16.1 km
selkeää

METAR: KSOW 181055Z AUTO 00000KT 10SM CLR 01/M11 A3023 RMK AO2

Aika: 04:27 (11:27 UTC)


TAF: puuttuu

Säähavainnot ja -ennusteet yli 4000 lentoasemalta (METAR- ja TAF-raportit).

Käytössä olevat sääasemat on merkitty karttaan keltaisilla ja punaisilla pisteillä.

Aseta hiiri pisteen päälle nähdäksesi sääaseman nimen.

Klikkaa sitten nähdäksesi säähavainnot ja -ennusteet.

Kartan vaihtaminen: klikkaa mustalla rastilla varustettuja vihreitä pisteitä, niin voit zoomata sisään; viivalla varustettua vihreää pistettä, niin voit zoomata ulos tai vihreitä nuolia, niin pääset viereisille kartoille.


METAR-TAF: